Time;durP1;ratioP1;P1;durP2;ratioP2;P2;SDS_P1;SDS_P2;PMS_P1;PMS_P2;Temp;Humidity;BMP_temperature;BMP_pressure;BME280_temperature;BME280_humidity;BME280_pressure;Samples;Min_cycle;Max_cycle;Signal;HPM_P1;HPM_P2
2020/12/15 00:00:26;;;;;;;15.93;11.23;;;5.30;96.50;;;;;;4921770;29;20216;-77
2020/12/15 00:02:53;;;;;;;16.88;12.15;;;5.20;95.50;;;;;;4920656;29;20266;-78
2020/12/15 00:05:20;;;;;;;15.05;10.18;;;5.20;95.70;;;;;;4923171;29;20715;-78
2020/12/15 00:07:46;;;;;;;11.30;9.65;;;5.20;95.40;;;;;;4931949;29;20212;-78
2020/12/15 00:10:13;;;;;;;11.38;9.65;;;5.30;95.30;;;;;;4922051;29;20214;-77
2020/12/15 00:12:41;;;;;;;12.95;10.13;;;5.30;94.80;;;;;;4920234;29;20273;-77
2020/12/15 00:15:08;;;;;;;11.68;9.48;;;5.20;94.50;;;;;;4919948;29;20236;-78
2020/12/15 00:17:34;;;;;;;14.35;9.40;;;5.30;94.50;;;;;;4921623;29;20216;-77
2020/12/15 00:20:01;;;;;;;13.25;9.55;;;5.30;94.20;;;;;;4927457;29;20225;-77
2020/12/15 00:22:28;;;;;;;13.02;10.05;;;5.30;93.70;;;;;;4927062;29;20235;-78
2020/12/15 00:24:55;;;;;;;10.95;9.43;;;5.20;93.30;;;;;;4927887;29;20295;-77
2020/12/15 00:27:21;;;;;;;12.27;10.10;;;5.10;93.50;;;;;;4927782;29;20216;-78
2020/12/15 00:29:48;;;;;;;10.60;8.27;;;5.20;93.50;;;;;;4926979;29;20429;-77
2020/12/15 00:32:14;;;;;;;11.35;8.70;;;5.30;93.50;;;;;;4927387;29;20215;-77
2020/12/15 00:34:40;;;;;;;15.23;9.30;;;5.30;93.50;;;;;;4926667;29;20238;-77
2020/12/15 00:37:09;;;;;;;11.48;9.43;;;5.10;93.10;;;;;;4920452;29;20226;-78
2020/12/15 00:39:36;;;;;;;11.32;8.93;;;5.10;93.40;;;;;;4918509;29;20227;-78
2020/12/15 00:42:02;;;;;;;13.93;9.13;;;5.20;93.50;;;;;;4918426;29;20303;-78
2020/12/15 00:44:29;;;;;;;14.27;10.07;;;5.30;93.50;;;;;;4917894;29;20717;-76
2020/12/15 00:46:55;;;;;;;14.05;9.05;;;5.30;93.50;;;;;;4919255;29;20235;-78
2020/12/15 00:49:22;;;;;;;13.00;9.52;;;5.10;93.40;;;;;;4918197;29;20339;-77
2020/12/15 00:51:49;;;;;;;10.40;9.02;;;5.20;93.70;;;;;;4919437;29;20223;-76
2020/12/15 00:54:15;;;;;;;10.10;8.65;;;5.30;93.90;;;;;;4919542;29;20218;-76
2020/12/15 00:56:43;;;;;;;14.23;8.55;;;5.30;93.50;;;;;;4918307;29;20222;-78
2020/12/15 00:59:09;;;;;;;11.80;8.43;;;5.40;93.50;;;;;;4920389;29;20212;-77
2020/12/15 01:01:35;;;;;;;10.50;9.40;;;5.40;93.50;;;;;;4919155;29;20213;-78
2020/12/15 01:04:02;;;;;;;13.43;9.60;;;5.50;93.60;;;;;;4919256;29;20231;-77
2020/12/15 01:06:29;;;;;;;14.88;10.30;;;5.40;93.30;;;;;;4924441;29;20746;-78
2020/12/15 01:08:55;;;;;;;13.15;9.15;;;5.50;93.60;;;;;;4919946;29;20208;-77
2020/12/15 01:11:27;;;;;;;13.07;10.45;;;5.50;93.60;;;;;;4920244;29;20294;-78
2020/12/15 01:13:55;;;;;;;13.13;10.38;;;5.60;93.60;;;;;;4920585;29;20468;-78
2020/12/15 01:16:21;;;;;;;11.77;10.05;;;5.60;93.60;;;;;;4922892;29;20241;-77
2020/12/15 01:18:47;;;;;;;14.15;10.10;;;5.70;93.70;;;;;;4921994;29;20220;-78
2020/12/15 01:21:14;;;;;;;11.55;10.05;;;5.70;94.00;;;;;;4919392;29;20216;-78
2020/12/15 01:23:40;;;;;;;13.35;9.48;;;5.80;93.70;;;;;;4917555;29;21061;-78
2020/12/15 01:26:08;;;;;;;11.07;9.60;;;5.80;93.30;;;;;;4917290;29;20708;-77
2020/12/15 01:28:34;;;;;;;14.13;11.10;;;5.80;93.40;;;;;;4917014;29;20271;-78
2020/12/15 01:31:02;;;;;;;12.30;10.98;;;5.80;93.00;;;;;;4917527;29;20311;-78
2020/12/15 01:33:29;;;;;;;14.15;9.73;;;5.80;93.70;;;;;;4917483;29;20273;-76
2020/12/15 01:35:55;;;;;;;12.10;9.98;;;5.80;93.70;;;;;;4917094;29;20664;-76
2020/12/15 01:38:22;;;;;;;13.55;9.90;;;5.80;93.70;;;;;;4917818;29;20748;-77
2020/12/15 01:40:50;;;;;;;12.88;10.27;;;5.80;93.70;;;;;;4918289;29;20219;-78
2020/12/15 01:43:16;;;;;;;12.20;9.55;;;5.80;93.70;;;;;;4917502;29;20256;-78
2020/12/15 01:45:43;;;;;;;13.77;10.25;;;5.90;93.70;;;;;;4918350;29;20236;-77
2020/12/15 01:48:11;;;;;;;11.75;9.73;;;5.90;93.70;;;;;;4917557;29;20680;-78
2020/12/15 01:50:38;;;;;;;13.45;10.35;;;5.90;93.70;;;;;;4918715;29;20292;-77
2020/12/15 01:53:09;;;;;;;13.18;9.88;;;5.90;93.70;;;;;;4918094;29;20235;-76
2020/12/15 01:55:36;;;;;;;11.63;9.90;;;5.90;93.90;;;;;;4918477;29;20242;-77
2020/12/15 01:58:03;;;;;;;12.43;10.13;;;5.90;94.10;;;;;;4918040;29;20216;-77
2020/12/15 02:00:30;;;;;;;12.18;9.63;;;6.00;94.10;;;;;;4921804;29;20217;-78
2020/12/15 02:02:56;;;;;;;13.18;10.18;;;6.00;93.90;;;;;;4935908;29;20550;-77
2020/12/15 02:05:24;;;;;;;12.60;9.80;;;6.10;93.80;;;;;;4938548;29;20217;-79
2020/12/15 02:07:51;;;;;;;12.18;10.43;;;6.10;93.80;;;;;;4939212;29;20256;-78
2020/12/15 02:10:18;;;;;;;13.02;10.65;;;6.10;93.80;;;;;;4939691;29;20220;-79
2020/12/15 02:12:44;;;;;;;13.00;10.82;;;6.20;93.90;;;;;;4939160;29;20220;-79
2020/12/15 02:15:11;;;;;;;13.48;11.90;;;6.10;93.60;;;;;;4939441;29;20229;-80
2020/12/15 02:17:38;;;;;;;13.82;11.20;;;5.80;93.70;;;;;;4939966;29;20209;-79
2020/12/15 02:20:06;;;;;;;15.18;11.18;;;5.70;94.70;;;;;;4940155;29;20205;-80
2020/12/15 02:22:33;;;;;;;15.98;11.20;;;5.90;95.20;;;;;;4939772;29;20256;-79
2020/12/15 02:25:00;;;;;;;14.85;11.40;;;5.90;95.20;;;;;;4939767;29;20221;-80
2020/12/15 02:27:27;;;;;;;15.02;12.10;;;6.00;95.60;;;;;;4939426;29;20228;-79
2020/12/15 02:29:53;;;;;;;13.55;11.18;;;6.10;95.40;;;;;;4939211;29;20237;-80
2020/12/15 02:32:19;;;;;;;13.68;10.63;;;6.10;95.40;;;;;;4939208;29;20255;-79
2020/12/15 02:34:46;;;;;;;16.17;11.93;;;6.10;95.60;;;;;;4937214;29;20306;-81
2020/12/15 02:37:13;;;;;;;13.82;11.60;;;6.10;95.60;;;;;;4936493;29;20217;-78
2020/12/15 02:39:41;;;;;;;15.07;11.85;;;6.00;95.60;;;;;;4936671;29;20199;-78
2020/12/15 02:42:07;;;;;;;15.25;11.68;;;6.00;95.90;;;;;;4937204;29;20212;-77
2020/12/15 02:44:34;;;;;;;12.85;10.95;;;6.00;96.40;;;;;;4936060;29;20242;-78
2020/12/15 02:47:00;;;;;;;15.73;12.00;;;6.00;96.20;;;;;;4936441;29;20200;-78
2020/12/15 02:49:27;;;;;;;13.57;12.13;;;5.90;96.60;;;;;;4933678;29;20239;-78
2020/12/15 02:51:54;;;;;;;17.77;11.93;;;5.90;96.90;;;;;;4925790;29;20671;-79
2020/12/15 02:54:20;;;;;;;13.70;11.43;;;5.90;97.20;;;;;;4923237;29;20212;-79
2020/12/15 02:56:47;;;;;;;16.33;12.55;;;5.90;97.30;;;;;;4934470;29;20213;-79
2020/12/15 02:59:14;;;;;;;14.82;11.63;;;5.80;97.30;;;;;;4931651;29;20216;-78
2020/12/15 03:01:40;;;;;;;18.20;12.35;;;5.70;97.80;;;;;;4926531;29;20243;-78
2020/12/15 03:04:08;;;;;;;16.17;12.27;;;5.70;97.90;;;;;;4922125;29;20270;-79
2020/12/15 03:06:34;;;;;;;14.57;12.30;;;5.60;98.20;;;;;;4924036;29;20233;-80
2020/12/15 03:09:01;;;;;;;14.32;12.07;;;5.50;98.80;;;;;;4928075;29;20275;-80
2020/12/15 03:11:27;;;;;;;14.75;11.65;;;5.50;99.30;;;;;;4930815;29;20223;-80
2020/12/15 03:13:54;;;;;;;14.57;11.02;;;5.60;99.80;;;;;;4932889;29;20214;-79
2020/12/15 03:16:21;;;;;;;12.80;10.90;;;5.60;99.80;;;;;;4958323;23;20239;-76
2020/12/15 03:18:48;;;;;;;15.63;11.90;;;5.60;99.80;;;;;;4938852;29;20208;-76
2020/12/15 03:21:16;;;;;;;13.25;10.70;;;5.60;99.40;;;;;;4939705;29;20213;-77
2020/12/15 03:23:43;;;;;;;13.77;10.80;;;5.70;99.30;;;;;;4939632;29;20213;-76
2020/12/15 03:26:10;;;;;;;11.77;10.48;;;5.60;99.10;;;;;;4937141;29;20250;-76
2020/12/15 03:28:36;;;;;;;11.32;10.20;;;5.60;98.80;;;;;;4933335;29;20208;-77
2020/12/15 03:31:03;;;;;;;13.82;11.25;;;5.70;99.00;;;;;;4930895;29;20242;-77
2020/12/15 03:33:30;;;;;;;14.70;10.50;;;5.80;99.00;;;;;;4935483;29;20247;-76
2020/12/15 03:35:57;;;;;;;12.73;10.30;;;5.80;98.60;;;;;;4936355;29;20213;-76
2020/12/15 03:38:23;;;;;;;14.75;10.88;;;5.80;98.20;;;;;;4939858;29;20209;-77
2020/12/15 03:40:50;;;;;;;13.68;9.77;;;5.80;98.00;;;;;;4939666;29;20222;-77
2020/12/15 03:43:16;;;;;;;12.98;10.02;;;5.80;97.80;;;;;;4941734;29;20252;-77
2020/12/15 03:45:46;;;;;;;13.75;10.15;;;5.90;97.30;;;;;;4941086;29;20219;-78
2020/12/15 03:48:14;;;;;;;12.63;9.95;;;5.80;97.20;;;;;;4940625;29;20212;-76
2020/12/15 03:50:40;;;;;;;10.15;9.15;;;5.90;97.30;;;;;;4941993;29;20246;-77
2020/12/15 03:53:08;;;;;;;14.35;10.40;;;5.90;97.30;;;;;;4942410;29;20195;-77
2020/12/15 03:55:34;;;;;;;12.65;9.55;;;5.70;97.20;;;;;;4941709;29;20250;-77
2020/12/15 03:58:00;;;;;;;12.80;10.40;;;5.70;97.20;;;;;;4939656;29;20216;-77
2020/12/15 04:00:27;;;;;;;14.52;10.45;;;5.70;97.20;;;;;;4935789;29;20244;-77
2020/12/15 04:02:53;;;;;;;11.00;9.00;;;5.70;97.20;;;;;;4937045;29;20225;-77
2020/12/15 04:05:20;;;;;;;13.45;10.35;;;5.80;97.70;;;;;;4936269;29;20219;-78
2020/12/15 04:07:48;;;;;;;18.45;11.77;;;5.80;97.80;;;;;;4932217;29;20213;-78
2020/12/15 04:10:17;;;;;;;12.15;10.05;;;5.80;97.80;;;;;;4930219;29;20208;-79
2020/12/15 04:12:44;;;;;;;13.40;9.77;;;5.90;97.90;;;;;;4935405;29;20259;-78
2020/12/15 04:15:11;;;;;;;13.60;10.43;;;5.90;97.80;;;;;;4928452;29;20244;-76
2020/12/15 04:17:37;;;;;;;11.13;9.60;;;5.80;98.00;;;;;;4936807;29;20240;-77
2020/12/15 04:20:06;;;;;;;11.70;9.07;;;5.80;98.10;;;;;;4932070;29;20209;-77
2020/12/15 04:22:33;;;;;;;11.57;9.73;;;5.90;98.30;;;;;;4936062;29;20223;-75
2020/12/15 04:25:00;;;;;;;13.00;9.50;;;5.80;98.20;;;;;;4938003;29;20239;-75
2020/12/15 04:27:27;;;;;;;12.77;9.95;;;5.80;98.40;;;;;;4937793;29;20200;-76
2020/12/15 04:29:54;;;;;;;11.95;9.80;;;5.80;98.20;;;;;;4939822;29;20211;-76
2020/12/15 04:32:20;;;;;;;15.18;10.30;;;5.90;98.70;;;;;;4940646;29;20197;-77
2020/12/15 04:34:47;;;;;;;12.65;10.32;;;5.90;98.70;;;;;;4932939;29;20685;-76
2020/12/15 04:37:13;;;;;;;11.30;9.60;;;5.80;98.20;;;;;;4933355;29;20220;-77
2020/12/15 04:39:41;;;;;;;14.13;10.15;;;5.80;98.50;;;;;;4933581;29;20247;-79
2020/12/15 04:42:07;;;;;;;10.88;9.02;;;5.90;98.50;;;;;;4933691;29;20207;-78
2020/12/15 04:44:35;;;;;;;13.80;9.15;;;6.00;98.60;;;;;;4931213;29;20270;-78
2020/12/15 04:47:12;;;;;;;13.73;9.73;;;6.00;98.30;;;;;;4928768;29;20296;-78
2020/12/15 04:49:51;;;;;;;10.65;9.55;;;5.90;98.60;;;;;;4925600;29;20204;-80
2020/12/15 04:52:23;;;;;;;12.18;9.52;;;5.80;98.80;;;;;;4941116;29;20207;-77
2020/12/15 04:54:51;;;;;;;11.88;9.73;;;5.80;98.90;;;;;;4936697;29;20385;-79
2020/12/15 04:57:21;;;;;;;15.50;9.90;;;5.80;99.00;;;;;;4933382;29;20220;-78
2020/12/15 04:59:49;;;;;;;11.13;9.32;;;5.80;99.30;;;;;;4937796;29;20220;-78
2020/12/15 05:02:18;;;;;;;14.55;10.00;;;5.90;99.50;;;;;;4941083;29;20243;-77
2020/12/15 05:04:44;;;;;;;12.55;9.38;;;5.90;99.40;;;;;;4941404;29;20231;-79
2020/12/15 05:07:12;;;;;;;10.70;9.10;;;5.90;99.40;;;;;;4937844;29;20191;-77
2020/12/15 05:09:38;;;;;;;10.50;8.85;;;6.00;99.40;;;;;;4941778;29;20204;-80
2020/12/15 05:12:06;;;;;;;11.20;9.30;;;6.00;99.30;;;;;;4940498;29;20199;-78
2020/12/15 05:14:33;;;;;;;10.02;8.05;;;6.10;99.40;;;;;;4939861;29;20225;-76
2020/12/15 05:16:59;;;;;;;10.38;8.70;;;6.20;99.20;;;;;;4936554;29;20256;-77
2020/12/15 05:19:26;;;;;;;9.48;8.57;;;6.10;98.90;;;;;;4936629;29;20197;-77
2020/12/15 05:21:56;;;;;;;9.77;8.20;;;6.10;98.50;;;;;;4936147;29;20223;-78
2020/12/15 05:24:27;;;;;;;12.27;9.13;;;6.10;98.50;;;;;;4937112;29;20230;-78
2020/12/15 05:26:55;;;;;;;10.50;8.52;;;6.20;98.50;;;;;;4925732;29;20311;-78
2020/12/15 05:29:23;;;;;;;12.68;8.48;;;6.20;98.20;;;;;;4923550;29;20655;-78
2020/12/15 05:31:50;;;;;;;11.73;9.00;;;6.20;97.90;;;;;;4923160;29;20462;-78
2020/12/15 05:34:25;;;;;;;10.95;9.50;;;6.20;97.40;;;;;;4923515;29;20220;-78
2020/12/15 05:36:54;;;;;;;11.00;9.40;;;6.10;97.10;;;;;;4922848;29;20219;-79
2020/12/15 05:39:21;;;;;;;12.15;10.00;;;6.10;96.70;;;;;;4924063;29;20200;-79
2020/12/15 05:41:49;;;;;;;14.00;9.38;;;6.10;96.30;;;;;;4924262;29;20275;-79
2020/12/15 05:44:26;;;;;;;10.68;8.93;;;6.10;96.10;;;;;;4924444;29;20254;-77
2020/12/15 05:46:53;;;;;;;11.80;9.10;;;6.10;96.20;;;;;;4927093;29;20223;-79
2020/12/15 05:49:27;;;;;;;10.30;9.20;;;6.20;96.00;;;;;;4925363;29;20201;-79
2020/12/15 05:51:54;;;;;;;12.77;8.65;;;6.20;95.50;;;;;;4924415;29;20201;-80
2020/12/15 05:54:20;;;;;;;12.48;10.23;;;6.20;95.60;;;;;;4925337;29;20216;-79
2020/12/15 05:56:47;;;;;;;12.32;9.77;;;6.20;95.60;;;;;;4924492;29;20267;-77
2020/12/15 05:59:18;;;;;;;11.05;9.63;;;6.30;95.70;;;;;;4926007;29;20219;-76
2020/12/15 06:01:48;;;;;;;10.68;8.48;;;6.20;95.60;;;;;;4928474;29;20396;-78
2020/12/15 06:04:15;;;;;;;13.52;9.32;;;6.20;96.00;;;;;;4931831;29;20228;-80
2020/12/15 06:06:42;;;;;;;11.00;9.23;;;6.20;95.90;;;;;;4925423;29;20243;-79
2020/12/15 06:09:10;;;;;;;14.02;9.82;;;6.30;95.90;;;;;;4927716;29;20208;-78
2020/12/15 06:11:41;;;;;;;10.88;9.77;;;6.30;95.50;;;;;;4925550;29;20213;-80
2020/12/15 06:14:09;;;;;;;11.05;8.63;;;6.40;95.20;;;;;;4926248;29;20253;-78
2020/12/15 06:16:35;;;;;;;12.32;9.20;;;6.40;95.30;;;;;;4928800;29;20464;-79
2020/12/15 06:19:06;;;;;;;9.25;7.93;;;6.40;95.30;;;;;;4939096;29;20196;-76
2020/12/15 06:21:34;;;;;;;16.30;9.55;;;6.40;95.50;;;;;;4938386;29;20192;-76
2020/12/15 06:24:02;;;;;;;11.05;8.98;;;6.40;95.50;;;;;;4935074;29;20307;-80
2020/12/15 06:26:29;;;;;;;10.23;8.15;;;6.50;95.80;;;;;;4934576;29;20347;-78
2020/12/15 06:29:01;;;;;;;11.82;9.25;;;6.50;95.80;;;;;;4936846;29;20224;-77
2020/12/15 06:31:28;;;;;;;11.70;9.45;;;6.60;95.60;;;;;;4941291;29;20493;-77
2020/12/15 06:33:55;;;;;;;11.82;8.82;;;6.60;95.30;;;;;;4936228;29;20212;-76
2020/12/15 06:36:28;;;;;;;11.10;7.82;;;6.60;95.10;;;;;;4932093;29;20247;-77
2020/12/15 06:38:55;;;;;;;10.60;9.50;;;6.60;95.10;;;;;;4942312;29;20207;-77
2020/12/15 06:41:23;;;;;;;12.77;8.52;;;6.70;95.10;;;;;;4940721;29;20209;-79
2020/12/15 06:43:50;;;;;;;9.05;8.15;;;6.70;95.10;;;;;;4938264;29;20209;-77
2020/12/15 06:46:27;;;;;;;8.50;7.70;;;6.80;95.20;;;;;;4940836;29;20233;-78
2020/12/15 06:48:55;;;;;;;12.27;8.50;;;6.90;95.20;;;;;;4937684;29;20272;-77
2020/12/15 06:51:30;;;;;;;10.80;9.18;;;7.00;94.90;;;;;;4934823;29;20223;-78
2020/12/15 06:54:01;;;;;;;14.88;9.02;;;7.10;94.60;;;;;;4930670;29;20212;-79
2020/12/15 06:56:29;;;;;;;11.13;8.13;;;7.20;94.20;;;;;;4929049;29;20268;-79
2020/12/15 06:59:04;;;;;;;11.05;8.50;;;7.10;93.80;;;;;;4935163;29;20269;-77
2020/12/15 07:01:31;;;;;;;12.57;9.80;;;7.10;93.80;;;;;;4937204;29;20197;-79
2020/12/15 07:03:58;;;;;;;14.65;10.18;;;7.10;94.20;;;;;;4928996;29;20234;-78
2020/12/15 07:06:25;;;;;;;14.82;10.90;;;7.00;94.20;;;;;;4929117;29;20249;-79
2020/12/15 07:09:00;;;;;;;12.60;9.30;;;7.00;94.30;;;;;;4930491;29;20248;-79
2020/12/15 07:11:27;;;;;;;12.80;9.80;;;6.90;95.10;;;;;;4939144;29;20200;-76
2020/12/15 07:13:58;;;;;;;13.00;9.90;;;6.90;95.80;;;;;;4941758;29;20203;-77
2020/12/15 07:16:25;;;;;;;13.32;9.90;;;6.90;96.00;;;;;;4936015;29;20237;-79
2020/12/15 07:18:52;;;;;;;12.75;9.95;;;6.80;96.40;;;;;;4939159;29;20215;-76
2020/12/15 07:21:21;;;;;;;14.70;10.75;;;6.80;96.60;;;;;;4941685;29;20217;-77
2020/12/15 07:23:48;;;;;;;14.98;10.73;;;6.90;96.80;;;;;;4938614;29;20231;-78
2020/12/15 07:26:17;;;;;;;13.27;10.23;;;6.80;96.80;;;;;;4936025;29;20232;-78
2020/12/15 07:28:45;;;;;;;17.17;10.85;;;6.80;96.40;;;;;;4932428;29;20207;-78
2020/12/15 07:31:12;;;;;;;12.23;10.60;;;6.80;96.60;;;;;;4942965;29;20196;-77
2020/12/15 07:33:39;;;;;;;13.57;9.98;;;6.70;96.60;;;;;;4938716;29;20208;-79
2020/12/15 07:36:15;;;;;;;15.32;11.20;;;6.70;96.50;;;;;;4928765;29;20235;-78
2020/12/15 07:38:43;;;;;;;16.48;12.15;;;6.60;96.70;;;;;;4941930;29;20212;-77
2020/12/15 07:41:16;;;;;;;14.90;10.77;;;6.50;97.30;;;;;;4940831;29;20398;-79
2020/12/15 07:43:52;;;;;;;16.75;11.82;;;6.60;97.50;;;;;;4940484;29;20224;-79
2020/12/15 07:46:23;;;;;;;14.52;11.63;;;6.60;97.50;;;;;;4941090;29;20235;-78
2020/12/15 07:48:52;;;;;;;14.38;10.90;;;6.60;97.50;;;;;;4941774;29;20205;-79
2020/12/15 07:51:20;;;;;;;13.48;11.18;;;6.70;97.60;;;;;;4942416;29;20299;-80
2020/12/15 07:53:50;;;;;;;15.95;11.25;;;6.60;97.50;;;;;;4942843;29;20197;-77
2020/12/15 07:56:19;;;;;;;13.00;10.55;;;6.70;97.60;;;;;;4942986;29;20216;-77
2020/12/15 07:58:50;;;;;;;19.00;12.25;;;6.70;97.60;;;;;;4942400;29;20193;-77
2020/12/15 08:01:24;;;;;;;17.25;11.85;;;6.80;97.60;;;;;;4939663;29;20220;-80
2020/12/15 08:04:01;;;;;;;10.57;9.57;;;6.90;97.70;;;;;;4936629;29;20284;-79
2020/12/15 08:06:30;;;;;;;14.15;10.40;;;6.90;97.70;;;;;;4936919;29;20267;-78
2020/12/15 08:08:58;;;;;;;12.07;10.32;;;7.00;97.70;;;;;;4939407;29;20265;-79
2020/12/15 08:11:26;;;;;;;15.80;10.82;;;7.10;97.70;;;;;;4938909;29;20248;-78
2020/12/15 08:13:52;;;;;;;12.27;10.10;;;7.20;97.30;;;;;;4937244;29;20205;-78
2020/12/15 08:16:19;;;;;;;12.00;9.73;;;7.20;96.20;;;;;;4934176;29;20245;-77
2020/12/15 08:18:49;;;;;;;11.32;9.93;;;7.30;96.10;;;;;;4936951;29;20244;-79
2020/12/15 08:21:17;;;;;;;13.93;10.73;;;7.20;95.40;;;;;;4936448;29;20228;-80
2020/12/15 08:23:53;;;;;;;11.43;10.18;;;7.00;94.90;;;;;;4931251;29;20272;-79
2020/12/15 08:26:21;;;;;;;13.00;10.10;;;7.00;94.60;;;;;;4926605;29;20267;-80
2020/12/15 08:28:49;;;;;;;14.15;10.95;;;7.00;95.00;;;;;;4935135;29;20214;-80
2020/12/15 08:31:18;;;;;;;10.35;9.20;;;7.20;95.10;;;;;;4928346;29;20209;-82
2020/12/15 08:33:44;;;;;;;17.10;11.25;;;7.00;95.00;;;;;;4922311;29;20297;-79
2020/12/15 08:36:11;;;;;;;15.27;11.60;;;7.10;94.90;;;;;;4926668;29;20236;-77
2020/12/15 08:38:42;;;;;;;18.80;10.88;;;7.20;94.50;;;;;;4931478;29;20226;-79
2020/12/15 08:41:14;;;;;;;13.60;10.55;;;7.30;94.30;;;;;;4918271;29;20214;-81
2020/12/15 08:43:40;;;;;;;13.32;10.55;;;7.40;94.20;;;;;;4906624;29;20233;-79
2020/12/15 08:46:16;;;;;;;14.65;10.35;;;7.30;93.80;;;;;;4905379;29;20655;-79
2020/12/15 08:48:42;;;;;;;12.65;10.20;;;7.50;94.00;;;;;;4904805;29;20245;-80
2020/12/15 08:51:16;;;;;;;17.40;10.70;;;7.70;93.40;;;;;;4910106;29;20301;-79
2020/12/15 08:53:46;;;;;;;14.77;11.00;;;7.70;92.20;;;;;;4924255;29;20259;-79
2020/12/15 08:56:14;;;;;;;13.45;9.70;;;7.80;92.40;;;;;;4924826;29;20363;-78
2020/12/15 08:58:41;;;;;;;15.70;9.90;;;7.90;91.40;;;;;;4923726;29;20206;-78
2020/12/15 09:01:08;;;;;;;13.13;9.10;;;8.00;91.00;;;;;;4929312;29;20299;-79
2020/12/15 09:03:45;;;;;;;12.27;9.05;;;8.00;91.00;;;;;;4939099;29;20229;-79
2020/12/15 09:08:54;;;;;;;19.67;9.73;;;8.10;90.30;;;;;;5161187;23;20232;-80
2020/12/15 09:11:20;;;;;;;11.57;9.85;;;8.20;90.00;;;;;;4949927;29;20288;-79
2020/12/15 09:13:54;;;;;;;15.18;9.57;;;8.20;88.70;;;;;;4945700;29;20235;-79
2020/12/15 09:16:29;;;;;;;14.43;9.95;;;8.40;88.10;;;;;;4958176;23;20240;-83
2020/12/15 09:19:13;;;;;;;12.27;9.82;;;8.50;86.90;;;;;;4945488;29;20216;-84
2020/12/15 09:21:40;;;;;;;13.73;9.27;;;8.60;85.20;;;;;;4943564;29;20205;-82
2020/12/15 09:24:09;;;;;;;15.57;9.43;;;8.70;84.60;;;;;;4944940;29;20664;-83
2020/12/15 09:26:37;;;;;;;13.18;9.23;;;8.70;83.20;;;;;;4944464;29;20240;-83
2020/12/15 09:29:10;;;;;;;10.07;8.45;;;8.80;82.40;;;;;;4951775;29;20289;-84
2020/12/15 09:31:37;;;;;;;9.50;8.15;;;8.80;81.20;;;;;;4951215;29;20222;-84
2020/12/15 09:34:05;;;;;;;8.93;8.00;;;8.70;80.30;;;;;;4944957;29;20209;-85
2020/12/15 09:36:31;;;;;;;11.23;9.10;;;8.60;79.20;;;;;;4945687;29;20271;-82
2020/12/15 09:39:02;;;;;;;11.60;8.52;;;8.60;77.80;;;;;;4945870;29;20213;-82
2020/12/15 09:41:40;;;;;;;9.65;8.70;;;8.60;78.70;;;;;;4948435;29;20221;-82
2020/12/15 09:44:08;;;;;;;11.55;8.55;;;8.70;78.30;;;;;;4947253;29;20253;-82
2020/12/15 09:46:42;;;;;;;10.45;7.70;;;9.00;77.00;;;;;;4949205;29;20596;-83
2020/12/15 09:49:10;;;;;;;10.00;8.05;;;9.20;76.60;;;;;;4947122;29;20241;-82
2020/12/15 09:51:36;;;;;;;9.20;8.23;;;9.30;72.70;;;;;;4947301;29;20267;-84
2020/12/15 09:54:03;;;;;;;10.90;8.05;;;9.40;71.80;;;;;;4952506;29;20220;-84
2020/12/15 09:56:30;;;;;;;9.48;8.35;;;9.40;70.60;;;;;;4953357;29;20226;-82
2020/12/15 09:58:58;;;;;;;9.00;8.10;;;9.50;70.20;;;;;;4950209;29;20286;-83
2020/12/15 10:01:25;;;;;;;13.10;8.18;;;9.60;70.20;;;;;;4947404;29;20248;-82
2020/12/15 10:03:51;;;;;;;10.55;8.85;;;9.60;70.20;;;;;;4945611;29;20246;-82
2020/12/15 10:06:20;;;;;;;11.60;7.90;;;9.80;70.00;;;;;;4946003;29;20240;-82
2020/12/15 10:08:47;;;;;;;8.57;7.78;;;9.80;68.90;;;;;;4945025;29;20231;-82
2020/12/15 10:11:15;;;;;;;8.50;7.57;;;9.70;69.30;;;;;;4948277;29;20217;-83
2020/12/15 10:13:42;;;;;;;9.27;7.90;;;9.80;68.40;;;;;;4950349;29;20220;-82
2020/12/15 10:16:09;;;;;;;10.45;8.38;;;9.90;69.30;;;;;;4949153;29;20244;-82
2020/12/15 10:18:36;;;;;;;9.95;7.95;;;10.00;67.60;;;;;;4954782;29;20276;-81
2020/12/15 10:21:03;;;;;;;9.65;8.45;;;10.10;67.70;;;;;;4956371;29;20254;-86
2020/12/15 10:23:33;;;;;;;10.63;8.85;;;10.20;67.10;;;;;;4957491;28;20209;-84
2020/12/15 10:26:00;;;;;;;10.48;8.35;;;10.20;66.40;;;;;;4957192;28;20226;-84
2020/12/15 10:28:26;;;;;;;12.18;9.50;;;10.10;67.20;;;;;;4954799;29;20217;-84
2020/12/15 10:30:53;;;;;;;12.15;8.95;;;10.20;67.40;;;;;;4956639;28;20217;-82
2020/12/15 10:33:19;;;;;;;11.30;9.23;;;10.20;66.70;;;;;;4949545;29;20246;-82
2020/12/15 10:35:46;;;;;;;10.30;9.20;;;10.20;66.50;;;;;;4947291;29;20217;-84
2020/12/15 10:38:13;;;;;;;12.68;9.15;;;10.00;67.00;;;;;;4955842;29;20232;-82
2020/12/15 10:40:40;;;;;;;9.57;8.23;;;9.90;68.50;;;;;;4955112;29;20212;-83
2020/12/15 10:43:07;;;;;;;11.30;9.40;;;9.60;69.70;;;;;;4944403;29;20546;-82
2020/12/15 10:45:33;;;;;;;9.90;8.80;;;9.50;72.20;;;;;;4943426;29;20273;-82
2020/12/15 10:48:00;;;;;;;10.88;8.57;;;9.40;72.40;;;;;;4945577;29;20210;-81
2020/12/15 10:50:27;;;;;;;11.63;9.40;;;9.40;72.90;;;;;;4949268;29;20219;-82
2020/12/15 10:52:54;;;;;;;10.25;8.50;;;9.40;73.00;;;;;;4955285;29;20237;-83
2020/12/15 10:55:21;;;;;;;15.07;9.57;;;9.30;73.50;;;;;;4956848;28;20224;-83
2020/12/15 10:57:49;;;;;;;9.07;7.97;;;9.40;72.80;;;;;;4958339;28;20205;-82
2020/12/15 11:00:15;;;;;;;9.38;8.35;;;9.30;72.50;;;;;;4958876;28;20204;-82
2020/12/15 11:02:42;;;;;;;10.15;9.15;;;9.40;72.60;;;;;;4958180;28;20237;-83
2020/12/15 11:05:09;;;;;;;10.98;9.75;;;9.50;72.50;;;;;;4956692;28;20238;-82
2020/12/15 11:07:35;;;;;;;9.98;8.43;;;9.60;73.60;;;;;;4955951;29;20232;-82
2020/12/15 11:10:02;;;;;;;9.27;8.15;;;9.70;73.20;;;;;;4956207;28;20886;-81
2020/12/15 11:12:28;;;;;;;13.02;8.48;;;9.70;72.90;;;;;;4957632;28;20196;-82
2020/12/15 11:14:56;;;;;;;11.52;8.88;;;9.90;71.80;;;;;;4957625;28;20191;-82
2020/12/15 11:17:22;;;;;;;9.45;8.20;;;9.90;71.40;;;;;;4958192;28;20219;-82
2020/12/15 11:19:49;;;;;;;11.93;8.77;;;9.60;73.90;;;;;;4957960;29;20232;-82
2020/12/15 11:22:15;;;;;;;9.82;8.52;;;10.00;72.00;;;;;;4957334;29;20271;-83
2020/12/15 11:24:42;;;;;;;9.88;8.45;;;10.30;69.50;;;;;;4957130;29;20238;-82
2020/12/15 11:27:08;;;;;;;11.60;9.05;;;10.30;67.80;;;;;;4956015;29;20231;-83
2020/12/15 11:29:35;;;;;;;11.27;8.45;;;10.40;67.90;;;;;;4957648;28;20232;-83
2020/12/15 11:32:02;;;;;;;9.43;8.43;;;10.30;67.80;;;;;;4961561;28;20219;-83
2020/12/15 11:34:29;;;;;;;8.60;7.72;;;10.20;67.70;;;;;;4962246;28;20214;-81
2020/12/15 11:36:56;;;;;;;11.23;8.00;;;10.10;67.70;;;;;;4957270;28;20218;-81
2020/12/15 11:39:22;;;;;;;10.25;7.85;;;9.90;68.50;;;;;;4960337;29;20203;-82
2020/12/15 11:41:49;;;;;;;9.15;7.18;;;9.80;69.90;;;;;;4961790;28;20202;-82
2020/12/15 11:44:18;;;;;;;10.57;7.57;;;9.90;70.40;;;;;;4960853;28;20231;-82
2020/12/15 11:46:45;;;;;;;8.50;7.00;;;9.70;69.90;;;;;;4957005;29;20230;-84
2020/12/15 11:49:13;;;;;;;8.77;7.88;;;9.70;70.50;;;;;;4954173;29;20220;-83
2020/12/15 11:51:40;;;;;;;8.43;7.50;;;9.60;71.80;;;;;;4955250;29;20226;-82
2020/12/15 11:54:12;;;;;;;12.32;8.32;;;9.60;71.80;;;;;;4956826;29;20226;-82
2020/12/15 11:56:39;;;;;;;11.02;8.27;;;9.50;71.40;;;;;;4936151;29;20247;-82
2020/12/15 11:59:11;;;;;;;12.23;8.98;;;9.40;71.90;;;;;;4936258;29;20211;-81
2020/12/15 12:01:38;;;;;;;11.88;9.13;;;9.40;72.40;;;;;;4938555;29;20216;-82
2020/12/15 12:04:07;;;;;;;12.85;10.77;;;9.40;73.10;;;;;;4935461;29;20233;-81
2020/12/15 12:06:37;;;;;;;13.40;10.00;;;9.30;72.50;;;;;;4935425;29;20249;-83
2020/12/15 12:09:04;;;;;;;13.93;9.98;;;9.40;72.70;;;;;;4935083;29;20212;-81
2020/12/15 12:11:31;;;;;;;12.40;10.82;;;9.40;73.00;;;;;;4938372;29;20321;-82
2020/12/15 12:13:57;;;;;;;18.42;14.00;;;9.60;72.60;;;;;;4949439;29;20212;-80
2020/12/15 12:16:24;;;;;;;15.48;12.52;;;9.40;73.00;;;;;;4958847;28;20269;-81
2020/12/15 12:18:50;;;;;;;18.40;13.50;;;9.40;73.80;;;;;;4959872;28;20216;-81
2020/12/15 12:21:17;;;;;;;22.25;15.60;;;9.40;73.60;;;;;;4960305;28;20226;-81
2020/12/15 12:23:44;;;;;;;21.67;15.02;;;9.30;74.20;;;;;;4960395;28;20241;-80
2020/12/15 12:26:15;;;;;;;21.65;15.25;;;9.40;75.40;;;;;;4959546;29;20224;-82
2020/12/15 12:28:41;;;;;;;18.58;15.15;;;9.50;74.80;;;;;;4960202;28;20232;-81
2020/12/15 12:31:12;;;;;;;29.35;16.27;;;9.40;75.60;;;;;;4960935;28;20198;-80
2020/12/15 12:33:38;;;;;;;18.55;15.75;;;9.40;75.20;;;;;;4960872;28;20187;-81
2020/12/15 12:36:05;;;;;;;21.40;15.38;;;9.40;76.00;;;;;;4961453;28;20216;-82
2020/12/15 12:38:31;;;;;;;18.80;15.82;;;9.50;76.70;;;;;;4961383;28;20193;-80
2020/12/15 12:40:59;;;;;;;19.83;16.13;;;9.50;76.80;;;;;;4960412;28;20219;-80
2020/12/15 12:43:25;;;;;;;22.42;16.67;;;9.50;76.80;;;;;;4943437;29;20200;-81
2020/12/15 12:45:52;;;;;;;22.98;16.52;;;9.50;76.80;;;;;;4944061;29;20256;-80
2020/12/15 12:48:19;;;;;;;17.70;14.10;;;9.50;76.80;;;;;;4948237;29;20221;-80